createdAt,value
2022-10-13T00:00:25.457Z,10.27
2022-10-13T00:02:55.494Z,10.93
2022-10-13T00:05:23.263Z,10.10
2022-10-13T00:07:51.327Z,10.27
2022-10-13T00:10:19.245Z,10.67
2022-10-13T00:12:47.464Z,14.20
2022-10-13T00:15:15.287Z,7.77
2022-10-13T00:17:43.053Z,7.97
2022-10-13T00:20:13.184Z,7.43
2022-10-13T00:22:41.485Z,6.43
2022-10-13T00:25:10.114Z,10.73
2022-10-13T00:27:37.959Z,8.03
2022-10-13T00:30:08.253Z,8.23
2022-10-13T00:32:36.329Z,9.20
2022-10-13T00:35:04.131Z,9.93
2022-10-13T00:37:33.590Z,12.97
2022-10-13T00:40:01.472Z,8.67
2022-10-13T00:42:29.337Z,7.87
2022-10-13T00:45:09.698Z,11.90
2022-10-13T00:47:40.158Z,12.77
2022-10-13T00:50:09.618Z,11.27
2022-10-13T00:52:39.168Z,11.03
2022-10-13T00:55:07.972Z,15.50
2022-10-13T00:57:36.294Z,10.03
2022-10-13T01:00:06.116Z,16.00
2022-10-13T01:02:36.260Z,15.47
2022-10-13T01:05:04.783Z,14.10
2022-10-13T01:07:33.073Z,18.27
2022-10-13T01:10:02.853Z,18.17
2022-10-13T01:12:37.938Z,17.17
2022-10-13T01:15:09.532Z,20.57
2022-10-13T01:17:39.039Z,22.07
2022-10-13T01:20:17.289Z,24.33
2022-10-13T01:22:50.103Z,25.60
2022-10-13T01:25:28.131Z,27.13
2022-10-13T01:28:06.241Z,27.73
2022-10-13T01:30:38.447Z,31.60
2022-10-13T01:33:11.923Z,34.47
2022-10-13T01:35:46.896Z,26.03
2022-10-13T01:38:20.567Z,32.47
2022-10-13T01:40:51.601Z,23.33
2022-10-13T01:43:21.615Z,14.43
2022-10-13T01:45:52.590Z,11.10
2022-10-13T01:48:20.929Z,10.30
2022-10-13T01:50:49.948Z,11.50
2022-10-13T01:53:19.007Z,9.47
2022-10-13T01:55:50.355Z,11.40
2022-10-13T01:58:18.084Z,9.53
2022-10-13T02:00:53.124Z,13.17
2022-10-13T02:03:24.701Z,10.70
2022-10-13T02:05:55.863Z,17.13
2022-10-13T02:08:27.823Z,17.03
2022-10-13T02:11:00.337Z,18.47
2022-10-13T02:13:29.688Z,17.60
2022-10-13T02:16:00.072Z,24.83
2022-10-13T02:18:31.816Z,19.40
2022-10-13T02:21:00.511Z,20.83
2022-10-13T02:23:28.655Z,20.17
2022-10-13T02:25:56.861Z,21.27
2022-10-13T02:28:27.250Z,23.53
2022-10-13T02:30:55.273Z,24.23
2022-10-13T02:33:23.216Z,26.10
2022-10-13T02:35:52.903Z,20.80
2022-10-13T02:38:20.636Z,24.40
2022-10-13T02:40:49.163Z,21.40
2022-10-13T02:43:17.192Z,21.90
2022-10-13T02:45:44.906Z,23.33
2022-10-13T02:48:12.953Z,28.57
2022-10-13T02:50:40.991Z,24.17
2022-10-13T02:53:10.411Z,22.87
2022-10-13T02:55:38.265Z,20.57
2022-10-13T02:58:07.569Z,26.63
2022-10-13T03:00:35.672Z,28.77
2022-10-13T03:03:03.886Z,35.73
2022-10-13T03:05:31.990Z,34.50
2022-10-13T03:07:59.914Z,31.43
2022-10-13T03:10:29.950Z,28.83
2022-10-13T03:13:04.838Z,29.10
2022-10-13T03:15:33.008Z,27.80
2022-10-13T03:18:01.227Z,29.23
2022-10-13T03:20:29.718Z,27.30
2022-10-13T03:22:57.474Z,27.87
2022-10-13T03:25:25.356Z,27.70
2022-10-13T03:27:56.188Z,27.43
2022-10-13T03:30:24.134Z,26.03
2022-10-13T03:32:52.987Z,26.60
2022-10-13T03:35:21.231Z,26.90
2022-10-13T03:37:49.224Z,25.17
2022-10-13T03:40:17.344Z,28.43
2022-10-13T03:42:45.902Z,27.07
2022-10-13T03:45:15.495Z,28.27
2022-10-13T03:47:43.783Z,30.47
2022-10-13T03:50:12.445Z,31.00
2022-10-13T03:52:40.394Z,27.07
2022-10-13T03:55:08.942Z,32.07
2022-10-13T03:57:36.692Z,29.43
2022-10-13T04:00:08.767Z,26.30
2022-10-13T04:02:38.538Z,26.73
2022-10-13T04:05:06.738Z,26.57
2022-10-13T04:07:34.481Z,27.47
2022-10-13T04:10:02.138Z,23.80
2022-10-13T04:12:29.962Z,26.03
2022-10-13T04:14:58.229Z,24.37
2022-10-13T04:17:25.940Z,24.43
2022-10-13T04:19:55.697Z,24.53
2022-10-13T04:22:24.150Z,26.93
2022-10-13T04:24:52.228Z,23.80
2022-10-13T04:27:21.176Z,22.67
2022-10-13T04:29:51.200Z,25.77
2022-10-13T04:32:19.825Z,23.07
2022-10-13T04:34:48.073Z,23.97
2022-10-13T04:37:18.084Z,26.10
2022-10-13T04:39:45.847Z,21.67
2022-10-13T04:42:13.867Z,21.83
2022-10-13T04:44:42.152Z,25.40
2022-10-13T04:47:09.895Z,25.50
2022-10-13T04:49:37.562Z,21.07
2022-10-13T04:52:05.605Z,19.10
2022-10-13T04:54:35.064Z,19.33
2022-10-13T04:57:02.746Z,19.60
2022-10-13T04:59:30.885Z,21.70
2022-10-13T05:01:58.758Z,20.57
2022-10-13T05:04:26.824Z,21.17
2022-10-13T05:07:16.453Z,19.70
2022-10-13T05:09:44.344Z,20.43
2022-10-13T05:12:12.884Z,19.27
2022-10-13T05:14:41.049Z,19.90
2022-10-13T05:17:08.991Z,28.00
2022-10-13T05:19:37.514Z,29.20
2022-10-13T05:22:05.757Z,34.37
2022-10-13T05:24:37.748Z,31.63
2022-10-13T05:27:08.067Z,37.90
2022-10-13T05:29:35.948Z,35.37
2022-10-13T05:32:03.980Z,38.80
2022-10-13T05:34:32.767Z,36.97
2022-10-13T05:37:03.684Z,40.60
2022-10-13T05:39:31.705Z,37.17
2022-10-13T05:41:59.853Z,37.07
2022-10-13T05:44:29.967Z,34.73
2022-10-13T05:46:58.420Z,36.67
2022-10-13T05:49:27.477Z,37.40
2022-10-13T05:51:56.858Z,33.17
2022-10-13T05:54:25.975Z,29.23
2022-10-13T05:56:55.965Z,32.70
2022-10-13T05:59:27.314Z,34.97
2022-10-13T06:01:56.849Z,32.37
2022-10-13T06:04:31.508Z,34.50
2022-10-13T06:06:59.903Z,35.90
2022-10-13T06:09:29.995Z,32.57
2022-10-13T06:11:58.591Z,36.97
2022-10-13T06:14:26.243Z,35.83
2022-10-13T06:16:54.316Z,40.13
2022-10-13T06:19:24.853Z,42.70
2022-10-13T06:21:52.936Z,40.47
2022-10-13T06:24:20.959Z,45.43
2022-10-13T06:26:49.278Z,41.77
2022-10-13T06:29:17.474Z,43.00
2022-10-13T06:31:46.808Z,37.47
2022-10-13T06:34:15.011Z,44.90
2022-10-13T06:36:44.515Z,30.13
2022-10-13T06:39:12.378Z,32.57
2022-10-13T06:41:40.319Z,41.50
2022-10-13T06:44:08.016Z,48.13
2022-10-13T06:46:36.126Z,43.27
2022-10-13T06:49:03.971Z,33.30
2022-10-13T06:51:32.211Z,46.73
2022-10-13T06:54:03.750Z,40.40
2022-10-13T06:56:31.972Z,38.10
2022-10-13T06:58:59.880Z,40.70
2022-10-13T07:01:27.983Z,39.47
2022-10-13T07:03:55.958Z,37.37
2022-10-13T07:06:23.879Z,37.20
2022-10-13T07:08:51.645Z,32.83
2022-10-13T07:11:21.513Z,38.17
2022-10-13T07:13:49.361Z,34.77
2022-10-13T07:16:17.643Z,30.80
2022-10-13T07:18:45.661Z,27.27
2022-10-13T07:21:13.421Z,24.83
2022-10-13T07:23:41.593Z,27.57
2022-10-13T07:26:10.033Z,28.10
2022-10-13T07:28:39.584Z,26.53
2022-10-13T07:31:12.171Z,29.33
2022-10-13T07:33:39.902Z,24.00
2022-10-13T07:36:08.434Z,27.77
2022-10-13T07:38:36.746Z,24.23
2022-10-13T07:41:06.197Z,25.43
2022-10-13T07:43:34.263Z,30.63
2022-10-13T07:46:06.517Z,23.40
2022-10-13T07:48:35.238Z,26.37
2022-10-13T07:51:05.193Z,23.23
2022-10-13T07:53:33.318Z,23.13
2022-10-13T07:56:02.270Z,25.93
2022-10-13T07:58:30.306Z,25.93
2022-10-13T08:00:59.495Z,22.70
2022-10-13T08:03:29.390Z,20.87
2022-10-13T08:05:59.497Z,23.90
2022-10-13T08:08:27.558Z,22.67
2022-10-13T08:10:57.062Z,23.53
2022-10-13T08:13:26.454Z,24.73
2022-10-13T08:15:54.764Z,24.60
2022-10-13T08:18:23.307Z,26.90
2022-10-13T08:20:59.233Z,24.67
2022-10-13T08:23:32.425Z,24.30
2022-10-13T08:26:00.334Z,27.50
2022-10-13T08:28:29.662Z,22.83
2022-10-13T08:30:58.308Z,26.10
2022-10-13T08:33:26.703Z,26.17
2022-10-13T08:35:57.704Z,18.63
2022-10-13T08:38:25.730Z,24.10
2022-10-13T08:40:53.753Z,22.83
2022-10-13T08:43:24.377Z,18.90
2022-10-13T08:45:53.141Z,23.53
2022-10-13T08:48:23.732Z,22.37
2022-10-13T08:50:53.008Z,23.70
2022-10-13T08:53:27.012Z,25.10
2022-10-13T08:55:57.294Z,26.07
2022-10-13T08:58:26.936Z,24.10
2022-10-13T09:00:58.887Z,19.50
2022-10-13T09:03:29.047Z,17.90
2022-10-13T09:06:01.495Z,17.70
2022-10-13T09:08:33.426Z,19.03
2022-10-13T09:11:02.045Z,19.37
2022-10-13T09:13:30.409Z,22.57
2022-10-13T09:16:00.168Z,17.13
2022-10-13T09:18:29.998Z,20.97
2022-10-13T09:21:10.482Z,17.83
2022-10-13T09:23:41.959Z,22.03
2022-10-13T09:26:10.742Z,21.67
2022-10-13T09:28:39.587Z,18.57
2022-10-13T09:31:14.820Z,21.37
2022-10-13T09:33:42.643Z,16.60
2022-10-13T09:36:16.078Z,19.27
2022-10-13T09:38:47.569Z,15.83
2022-10-13T09:41:17.859Z,23.67
2022-10-13T09:43:59.527Z,20.87
2022-10-13T09:46:31.599Z,17.10
2022-10-13T09:49:01.467Z,14.90
2022-10-13T09:51:34.918Z,24.80
2022-10-13T09:54:04.503Z,15.80
2022-10-13T09:56:36.115Z,21.17
2022-10-13T09:59:09.609Z,20.23
2022-10-13T10:01:41.100Z,20.40
2022-10-13T10:04:12.570Z,18.33
2022-10-13T10:06:41.470Z,16.83
2022-10-13T10:09:18.659Z,15.07
2022-10-13T10:11:47.840Z,15.20
2022-10-13T10:14:18.586Z,16.87
2022-10-13T10:16:47.983Z,15.97
2022-10-13T10:19:20.747Z,14.97
2022-10-13T10:21:51.380Z,16.07
2022-10-13T10:24:27.038Z,16.30
2022-10-13T10:26:57.525Z,12.40
2022-10-13T10:29:33.622Z,8.80
2022-10-13T10:32:21.520Z,10.37
2022-10-13T10:34:52.591Z,9.07
2022-10-13T10:37:25.142Z,10.93
2022-10-13T10:40:02.204Z,11.67
2022-10-13T10:42:51.938Z,8.73
2022-10-13T10:45:22.566Z,8.80
2022-10-13T10:47:52.874Z,7.13
2022-10-13T10:50:21.032Z,10.03
2022-10-13T10:52:52.134Z,9.13
2022-10-13T10:55:25.476Z,9.60
2022-10-13T10:57:57.238Z,8.67
2022-10-13T11:00:25.594Z,9.20
2022-10-13T11:02:57.193Z,10.87
2022-10-13T11:05:25.038Z,7.47
2022-10-13T11:07:56.962Z,9.47
2022-10-13T11:10:27.391Z,8.60
2022-10-13T11:13:22.351Z,10.60
2022-10-13T11:15:53.499Z,11.10
2022-10-13T11:18:40.148Z,15.63
2022-10-13T11:21:09.548Z,10.67
2022-10-13T11:23:47.302Z,10.70
2022-10-13T11:26:33.298Z,8.47
2022-10-13T11:29:04.906Z,12.33
2022-10-13T11:31:48.618Z,9.53
2022-10-13T11:34:37.062Z,7.23
2022-10-13T11:37:15.977Z,7.70
2022-10-13T11:40:07.694Z,7.63
2022-10-13T11:43:00.412Z,8.47
2022-10-13T11:45:36.036Z,7.80
2022-10-13T11:48:26.677Z,11.93
2022-10-13T11:51:01.075Z,8.43
2022-10-13T11:53:33.033Z,7.67
2022-10-13T11:56:02.977Z,6.87
2022-10-13T11:58:31.654Z,9.30
2022-10-13T12:01:01.570Z,9.10
2022-10-13T12:03:31.090Z,10.20
2022-10-13T12:06:01.178Z,6.93
2022-10-13T12:08:30.721Z,7.60
2022-10-13T12:11:01.744Z,7.87
2022-10-13T12:13:30.575Z,10.77
2022-10-13T12:16:06.143Z,10.40
2022-10-13T12:18:35.977Z,8.53
2022-10-13T12:21:05.132Z,8.73
2022-10-13T12:23:33.496Z,6.70
2022-10-13T12:26:01.829Z,9.80
2022-10-13T12:28:30.900Z,7.13
2022-10-13T12:31:01.940Z,8.37
2022-10-13T12:33:30.529Z,8.57
2022-10-13T12:36:12.143Z,10.07
2022-10-13T12:38:40.961Z,7.53
2022-10-13T12:41:09.184Z,6.97
2022-10-13T12:43:37.387Z,7.00
2022-10-13T12:46:09.804Z,9.00
2022-10-13T12:48:38.403Z,10.73
2022-10-13T12:51:23.700Z,9.00
2022-10-13T12:53:51.881Z,6.63
2022-10-13T12:56:22.023Z,9.10
2022-10-13T12:58:49.749Z,10.43
2022-10-13T13:01:35.364Z,6.87
2022-10-13T13:04:17.215Z,7.20
2022-10-13T13:06:55.749Z,11.20
2022-10-13T13:09:28.328Z,9.17
2022-10-13T13:12:23.187Z,10.30
2022-10-13T13:14:55.160Z,10.03
2022-10-13T13:17:45.795Z,9.07
2022-10-13T13:20:28.113Z,11.30
2022-10-13T13:22:57.543Z,8.73
2022-10-13T13:25:26.929Z,10.37
2022-10-13T13:27:54.892Z,11.73
2022-10-13T13:30:24.046Z,8.83
2022-10-13T13:32:52.390Z,9.63
2022-10-13T13:35:20.747Z,10.13
2022-10-13T13:37:51.135Z,9.97
2022-10-13T13:40:20.268Z,9.53
2022-10-13T13:42:47.902Z,15.73
2022-10-13T13:45:16.482Z,16.07
2022-10-13T13:47:47.014Z,21.40
2022-10-13T13:50:17.245Z,21.03
2022-10-13T13:52:45.093Z,13.07
2022-10-13T13:55:14.779Z,22.87
2022-10-13T13:57:43.343Z,18.50
2022-10-13T14:00:11.797Z,16.97
2022-10-13T14:02:40.851Z,12.50
2022-10-13T14:05:08.891Z,13.87
2022-10-13T14:07:36.756Z,11.47
2022-10-13T14:10:04.702Z,10.33
2022-10-13T14:12:34.774Z,11.77
2022-10-13T14:15:02.602Z,9.87
2022-10-13T14:17:30.295Z,10.13
2022-10-13T14:19:58.664Z,9.27
2022-10-13T14:22:26.932Z,10.73
2022-10-13T14:24:56.422Z,13.00
2022-10-13T14:27:24.616Z,13.17
2022-10-13T14:29:54.529Z,11.43
2022-10-13T14:32:22.790Z,12.37
2022-10-13T14:34:51.335Z,9.37
2022-10-13T14:37:23.027Z,11.67
2022-10-13T14:39:51.513Z,9.77
2022-10-13T14:42:19.711Z,11.17
2022-10-13T14:44:47.709Z,10.60
2022-10-13T14:47:16.921Z,7.77
2022-10-13T14:49:44.921Z,6.20
2022-10-13T14:52:13.380Z,7.13
2022-10-13T14:54:44.838Z,8.20
2022-10-13T14:57:16.954Z,6.57
2022-10-13T14:59:45.226Z,5.77
2022-10-13T15:02:13.320Z,6.23
2022-10-13T15:04:42.833Z,5.90
2022-10-13T15:07:10.808Z,6.40
2022-10-13T15:09:52.656Z,6.60
2022-10-13T15:12:32.348Z,7.70
2022-10-13T15:15:00.966Z,6.77
2022-10-13T15:17:29.278Z,7.57
2022-10-13T15:19:58.561Z,7.63
2022-10-13T15:22:26.330Z,8.50
2022-10-13T15:24:54.062Z,7.30
2022-10-13T15:27:22.108Z,9.30
2022-10-13T15:29:50.722Z,8.57
2022-10-13T15:32:20.736Z,6.60
2022-10-13T15:34:51.197Z,6.90
2022-10-13T15:37:21.317Z,7.43
2022-10-13T15:39:53.201Z,6.67
2022-10-13T15:42:27.926Z,6.73
2022-10-13T15:45:11.714Z,5.43
2022-10-13T15:47:40.018Z,5.00
2022-10-13T15:50:08.447Z,9.60
2022-10-13T15:52:40.245Z,9.63
2022-10-13T15:55:08.850Z,7.97
2022-10-13T15:57:36.631Z,7.07
2022-10-13T16:00:04.939Z,4.87
2022-10-13T16:02:32.827Z,7.07
2022-10-13T16:05:04.906Z,9.67
2022-10-13T16:07:32.733Z,6.37
2022-10-13T16:10:01.977Z,6.10
2022-10-13T16:12:30.369Z,6.57
2022-10-13T16:14:58.575Z,5.57
2022-10-13T16:17:26.406Z,7.10
2022-10-13T16:19:54.701Z,7.93
2022-10-13T16:22:31.514Z,5.93
2022-10-13T16:24:59.510Z,7.87
2022-10-13T16:27:28.561Z,7.97
2022-10-13T16:29:58.781Z,7.17
2022-10-13T16:32:27.378Z,10.60
2022-10-13T16:34:55.150Z,9.60
2022-10-13T16:37:23.470Z,9.87
2022-10-13T16:39:52.262Z,5.70
2022-10-13T16:42:21.076Z,9.10
2022-10-13T16:44:50.134Z,6.47
2022-10-13T16:47:18.884Z,4.60
2022-10-13T16:49:47.190Z,5.00
2022-10-13T16:52:15.074Z,5.17
2022-10-13T16:54:45.297Z,14.40
2022-10-13T16:57:13.230Z,7.87
2022-10-13T16:59:40.976Z,7.57
2022-10-13T17:02:14.674Z,8.70
2022-10-13T17:04:42.590Z,6.60
2022-10-13T17:07:10.618Z,9.57
2022-10-13T17:09:38.608Z,10.60
2022-10-13T17:12:08.187Z,6.40
2022-10-13T17:14:35.978Z,7.83
2022-10-13T17:17:03.800Z,9.07
2022-10-13T17:19:33.369Z,8.87
2022-10-13T17:22:01.298Z,14.27
2022-10-13T17:24:30.212Z,12.33
2022-10-13T17:26:58.002Z,11.63
2022-10-13T17:29:25.783Z,10.97
2022-10-13T17:31:53.613Z,7.93
2022-10-13T17:34:21.634Z,11.30
2022-10-13T17:36:50.755Z,10.77
2022-10-13T17:39:18.985Z,7.77
2022-10-13T17:41:47.020Z,11.27
2022-10-13T17:44:20.245Z,10.53
2022-10-13T17:46:49.612Z,14.33
2022-10-13T17:49:17.939Z,10.70
2022-10-13T17:51:46.249Z,8.53
2022-10-13T17:54:16.632Z,7.03
2022-10-13T17:56:45.307Z,7.17
2022-10-13T17:59:14.459Z,6.30
2022-10-13T18:01:42.653Z,10.13
2022-10-13T18:04:12.118Z,9.87
2022-10-13T18:06:41.436Z,8.60
2022-10-13T18:09:10.579Z,11.73
2022-10-13T18:11:41.776Z,10.17
2022-10-13T18:14:11.208Z,8.07
2022-10-13T18:16:40.101Z,14.00
2022-10-13T18:19:08.344Z,13.43
2022-10-13T18:21:36.195Z,10.67
2022-10-13T18:24:03.892Z,9.23
2022-10-13T18:26:35.053Z,9.97
2022-10-13T18:29:04.949Z,10.07
2022-10-13T18:31:37.206Z,9.50
2022-10-13T18:34:06.310Z,17.50
2022-10-13T18:36:34.976Z,10.47
2022-10-13T18:39:03.570Z,8.10
2022-10-13T18:41:32.772Z,12.77
2022-10-13T18:44:00.815Z,9.67
2022-10-13T18:46:29.866Z,9.53
2022-10-13T18:48:58.353Z,10.47
2022-10-13T18:51:26.481Z,10.77
2022-10-13T18:53:54.599Z,12.17
2022-10-13T18:56:23.487Z,14.80
2022-10-13T18:58:55.666Z,8.50
2022-10-13T19:01:27.363Z,9.33
2022-10-13T19:03:56.620Z,11.90
2022-10-13T19:06:26.763Z,10.63
2022-10-13T19:08:55.482Z,9.83
2022-10-13T19:11:24.011Z,10.53
2022-10-13T19:13:52.306Z,14.73
2022-10-13T19:16:22.515Z,16.97
2022-10-13T19:18:50.634Z,14.87
2022-10-13T19:21:20.393Z,11.47
2022-10-13T19:23:48.544Z,13.13
2022-10-13T19:26:18.654Z,13.57
2022-10-13T19:28:46.663Z,24.83
2022-10-13T19:31:15.781Z,22.27
2022-10-13T19:33:44.941Z,21.83
2022-10-13T19:36:20.547Z,22.00
2022-10-13T19:38:50.257Z,18.27
2022-10-13T19:41:18.129Z,23.67
2022-10-13T19:43:46.486Z,17.90
2022-10-13T19:46:14.375Z,16.23
2022-10-13T19:48:42.407Z,16.70
2022-10-13T19:51:11.383Z,20.60
2022-10-13T19:53:39.312Z,16.50
2022-10-13T19:56:09.095Z,16.20
2022-10-13T19:58:37.281Z,15.27
2022-10-13T20:01:06.070Z,14.33
2022-10-13T20:03:34.063Z,15.67
2022-10-13T20:06:04.498Z,15.83
2022-10-13T20:08:32.415Z,15.57
2022-10-13T20:11:01.469Z,23.43
2022-10-13T20:13:30.598Z,34.80
2022-10-13T20:15:58.200Z,26.37
2022-10-13T20:18:25.876Z,28.53
2022-10-13T20:20:54.015Z,32.97
2022-10-13T20:23:21.697Z,19.53
2022-10-13T20:25:49.392Z,19.83
2022-10-13T20:28:17.220Z,18.20
2022-10-13T20:30:46.329Z,12.67
2022-10-13T20:33:14.165Z,15.83
2022-10-13T20:35:41.878Z,14.33
2022-10-13T20:38:10.529Z,13.20
2022-10-13T20:40:38.444Z,17.80
2022-10-13T20:43:06.089Z,15.20
2022-10-13T20:45:34.250Z,12.50
2022-10-13T20:48:03.867Z,16.30
2022-10-13T20:50:31.564Z,17.90
2022-10-13T20:52:59.846Z,20.37
2022-10-13T20:55:27.585Z,16.90
2022-10-13T20:57:56.694Z,15.87
2022-10-13T21:00:25.843Z,16.70
2022-10-13T21:02:53.532Z,15.70
2022-10-13T21:05:22.603Z,21.53
2022-10-13T21:07:50.368Z,17.97
2022-10-13T21:10:18.272Z,14.27
2022-10-13T21:12:46.791Z,16.10
2022-10-13T21:15:14.761Z,14.47
2022-10-13T21:17:42.671Z,15.47
2022-10-13T21:20:11.146Z,14.43
2022-10-13T21:22:40.332Z,14.07
2022-10-13T21:25:08.450Z,10.33
2022-10-13T21:27:36.170Z,10.07
2022-10-13T21:30:04.346Z,17.17
2022-10-13T21:32:32.389Z,9.73
2022-10-13T21:35:00.324Z,9.53
2022-10-13T21:37:28.094Z,13.17
2022-10-13T21:39:57.226Z,9.63
2022-10-13T21:42:26.005Z,9.17
2022-10-13T21:44:54.043Z,13.50
2022-10-13T21:47:22.102Z,11.53
2022-10-13T21:49:50.383Z,14.30
2022-10-13T21:52:18.320Z,12.83
2022-10-13T21:54:45.887Z,9.80
2022-10-13T21:57:15.320Z,13.00
2022-10-13T21:59:45.856Z,9.90
2022-10-13T22:02:13.898Z,10.90
2022-10-13T22:04:43.349Z,12.20
2022-10-13T22:07:11.598Z,11.30
2022-10-13T22:09:39.545Z,9.60
2022-10-13T22:12:09.388Z,8.37
2022-10-13T22:14:39.078Z,7.80
2022-10-13T22:17:08.587Z,10.03
2022-10-13T22:19:36.351Z,9.80
2022-10-13T22:22:04.363Z,11.70
2022-10-13T22:24:34.733Z,10.30
2022-10-13T22:27:02.868Z,9.20
2022-10-13T22:29:30.793Z,11.93
2022-10-13T22:32:02.168Z,10.60
2022-10-13T22:34:30.509Z,10.27
2022-10-13T22:36:58.346Z,9.97
2022-10-13T22:39:26.509Z,8.50
2022-10-13T22:41:54.363Z,10.13
2022-10-13T22:44:22.131Z,12.80
2022-10-13T22:46:52.163Z,11.13
2022-10-13T22:49:21.523Z,8.30
2022-10-13T22:51:50.236Z,6.57
2022-10-13T22:54:17.968Z,7.73
2022-10-13T22:56:47.020Z,15.27
2022-10-13T22:59:14.923Z,10.43
2022-10-13T23:01:42.968Z,7.53
2022-10-13T23:04:11.114Z,10.30
2022-10-13T23:06:40.248Z,12.13
2022-10-13T23:09:09.571Z,10.57
2022-10-13T23:11:37.646Z,10.73
2022-10-13T23:14:06.256Z,7.53
2022-10-13T23:16:34.101Z,8.87
2022-10-13T23:19:01.896Z,9.10
2022-10-13T23:21:30.824Z,12.87
2022-10-13T23:24:00.764Z,12.10
2022-10-13T23:26:28.905Z,16.73
2022-10-13T23:28:57.063Z,15.53
2022-10-13T23:31:28.212Z,8.13
2022-10-13T23:33:57.283Z,9.77
2022-10-13T23:36:25.998Z,9.20
2022-10-13T23:38:55.398Z,6.43
2022-10-13T23:41:24.678Z,6.50
2022-10-13T23:43:52.511Z,9.30
2022-10-13T23:46:21.170Z,7.13
2022-10-13T23:48:48.955Z,7.50
2022-10-13T23:51:18.295Z,8.10
2022-10-13T23:53:46.331Z,9.27
2022-10-13T23:56:14.751Z,4.30
2022-10-13T23:58:44.674Z,5.97
